PUEBLO AVIATION WEATHER

 


 

 

Check out the latest edition of "The Front" - A Regional Newsletter dedicated to Aviation Weather

Aviation Weather Center Standard Briefing 

 


 

 

Colorado Springs Airport(KCOS) Aviation Decision Support Information Page  

 

 

  Terminal Aerodrome Forecasts

Interactive TAF Java Tool

Plotted TAFs and/or Text TAFs

Text TAFs

Pueblo KPUB

000
FTUS45 KPUB 270534
TAFPUB
TAF
KPUB 270534Z 2706/2806 09007KT P6SM SCT060 BKN100
     FM270800 VRB05KT P6SM SCT025 SCT110 BKN200
     FM271900 16008KT P6SM SCT050 BKN070
     FM280300 34010KT P6SM SCT070 BKN120=
Colorado Springs KCOS
000
FTUS45 KPUB 270534
TAFCOS
TAF
KCOS 270534Z 2706/2806 16005KT P6SM -SHRA VCTS SCT035 BKN045CB
     FM271000 01006KT P6SM SCT015 BKN035
     FM271800 15010KT P6SM VCTS SCT030 BKN050CB
     FM280200 36010KT P6SM SCT045 SCT060 BKN100=
Alamosa KALS

000
FTUS45 KPUB 270534
TAFALS
TAF
KALS 270534Z 2706/2806 VRB05KT P6SM BKN080 OVC100
     FM271800 23012G22KT P6SM SCT060 SCT100 BKN200
     FM280200 VRB05KT P6SM FEW080 SCT100 SCT200=
Denver KDEN

000
FTUS45 KBOU 270851 AAB
TAFDEN
TAF AMD
KDEN 270851Z 2709/2812 19010KT P6SM VCSH SCT080 BKN120
     FM271000 24007KT P6SM SCT020 SCT080 BKN120
      TEMPO 2710/2714 BKN020
     FM271500 34009KT P6SM FEW040 BKN100
     FM272000 36009KT P6SM SCT050 BKN090
      TEMPO 2720/2724 VRB20G30KT 5SM TSRA BKN060CB
     FM280000 06008KT P6SM VCTS SCT050CB BKN090
      TEMPO 2800/2804 VRB15G25KT -TSRA BKN050CB
     FM280400 35007KT P6SM SCT030 BKN050=
  

 

Pilot Reports (PIREPs)

Aircraft Icing U.S. NESE
NCSC
NWSW
Sky Conditions U.S. NESE
NCSC
NWSW
Turbulence U.S. NESE
NCSC
NWSW

 

SOARING FORECAST

Experimental product for soaring guidance, Southern Front Range

 

 

 

METARS:

Pueblo


Colorado Springs


Denver

Alamosa


 

 


 

 

 

 

RADAR AND SATELLITE

radar
pueblo radar
 

 

Latest Radar from Pueblo
Click Image to Enlarge

 

IR Satellite
Colorado Infrared Satellite - Click to enlarge
Latest Colorado IR Satellite Image
Click Image to Enlarge
Vis Satellite
Colorado Visible Satellite - Click to enlarge
Latest Colorado Visible Satellite Image
Click Image to Enlarge

 

WATCHES AND WARNINGS

TEXT OF ALL COLORADO WARNINGS

 

Latest Watches And Warnings

 

 

CENTER WEATHER ADVISORIES

 

AIRMETS/SIGMETS

 

 

 


 

FORECAST DISCUSSION: FA

 

 


 

OBSERVED UPPER AIR WINDS

(COURTESY RAP/NCAR)

 

 


 

FORECAST UPPER AIR WINDS

 

 


 

SURFACE OBSERVATIONS

(COURTESY RAP/NCAR)

 

 

 :

 

NOTAMS:

https://www.notams.jcs.mil/geo/radiusForm.html

 

 

 

 

 

 

 

 

 

 

 

 

 

 

 

 


 

 

Constant Pressure Plots From the Storm Prediction Center

Link to the Sky Spotter Program Homepage

 

Other Aviation Links

NWS Aviation Weather Center

ADDS - Aviation Page
FAA Homepage

 


 

 

 

 

 

 

 

 

 

 

 

 

 

 

 

 

 

 

 

 

 

 

 

 

 

 

 

 

 

 

 

 

 

Plots of AIRMETS / SIGMETS

Text AIRMETS / SIGMETS by Center 

Interactive AIRMET/SIGMET Java Tool

 

 



USA.gov is the U.S. government's official web portal to all federal, state and local government web resources and services.